Time;durP1;ratioP1;P1;durP2;ratioP2;P2;SDS_P1;SDS_P2;PMS_P1;PMS_P2;Temp;Humidity;BMP_temperature;BMP_pressure;BME280_temperature;BME280_humidity;BME280_pressure;Samples;Min_cycle;Max_cycle;Signal;HPM_P1;HPM_P2
2022/05/12 00:01:05;;;;;;;6.45;5.15;;;21.20;71.40;;;;;;4992464;28;20089;-62
2022/05/12 00:03:31;;;;;;;5.95;5.35;;;21.20;71.30;;;;;;4992850;28;20037;-62
2022/05/12 00:05:56;;;;;;;9.48;5.25;;;21.30;71.10;;;;;;4994472;28;20042;-60
2022/05/12 00:08:22;;;;;;;6.70;4.70;;;21.20;71.40;;;;;;4995140;28;20058;-63
2022/05/12 00:10:47;;;;;;;6.05;5.15;;;21.40;70.90;;;;;;4995027;28;20053;-62
2022/05/12 00:13:13;;;;;;;7.57;4.68;;;21.60;70.30;;;;;;4995805;28;20395;-63
2022/05/12 00:15:39;;;;;;;6.57;5.05;;;21.60;70.20;;;;;;4994840;28;20038;-62
2022/05/12 00:18:08;;;;;;;6.95;4.75;;;21.60;70.60;;;;;;4992970;28;20366;-62
2022/05/12 00:20:36;;;;;;;10.65;4.60;;;21.50;70.10;;;;;;4993293;28;20396;-62
2022/05/12 00:23:20;;;;;;;7.40;4.53;;;21.60;70.00;;;;;;4993306;28;20372;-63
2022/05/12 00:25:48;;;;;;;7.82;4.60;;;21.70;69.70;;;;;;4991427;28;20521;-62
2022/05/12 00:28:15;;;;;;;6.30;4.80;;;21.70;69.50;;;;;;4994179;28;20065;-63
2022/05/12 00:30:42;;;;;;;10.50;4.90;;;21.80;69.30;;;;;;4993980;28;20034;-62
2022/05/12 00:33:08;;;;;;;6.63;5.22;;;21.70;69.40;;;;;;4994284;28;20514;-63
2022/05/12 00:35:35;;;;;;;7.80;4.75;;;21.70;69.30;;;;;;4992276;28;20387;-62
2022/05/12 00:38:02;;;;;;;8.40;4.80;;;21.60;69.60;;;;;;4992193;28;20491;-64
2022/05/12 00:53:58;;;;;;;7.63;5.45;;;21.50;70.10;;;;;;4994089;28;20070;-61
2022/05/12 00:56:24;;;;;;;6.07;5.10;;;21.40;70.30;;;;;;4994681;28;20050;-62
2022/05/12 00:59:00;;;;;;;6.05;4.90;;;21.40;70.30;;;;;;4995415;28;20046;-63
2022/05/12 01:01:27;;;;;;;6.65;5.35;;;21.30;70.30;;;;;;4992962;28;20482;-63
2022/05/12 01:03:56;;;;;;;8.25;4.93;;;21.10;70.50;;;;;;4992490;28;20502;-62
2022/05/12 01:06:22;;;;;;;7.30;5.55;;;21.00;70.90;;;;;;4991835;28;20134;-62
2022/05/12 01:08:47;;;;;;;7.53;4.88;;;20.90;71.00;;;;;;4993609;28;20046;-61
2022/05/12 01:11:17;;;;;;;7.30;4.55;;;20.80;71.00;;;;;;4993189;28;20529;-61
2022/05/12 01:13:49;;;;;;;6.35;4.05;;;20.80;71.20;;;;;;4992567;28;20037;-62
2022/05/12 01:16:34;;;;;;;7.57;4.80;;;20.80;70.20;;;;;;4993962;28;20026;-61
2022/05/12 01:18:59;;;;;;;8.30;4.80;;;20.80;69.90;;;;;;4993925;28;20038;-60
2022/05/12 01:21:25;;;;;;;5.88;4.43;;;20.80;69.60;;;;;;4993033;28;20107;-62
2022/05/12 01:23:51;;;;;;;7.90;4.57;;;20.70;69.30;;;;;;4993873;28;20423;-61
2022/05/12 01:26:17;;;;;;;5.85;4.75;;;20.70;69.60;;;;;;4994315;28;20046;-60
2022/05/12 01:28:43;;;;;;;8.18;4.85;;;20.60;69.50;;;;;;4992024;28;20038;-61
2022/05/12 01:31:15;;;;;;;5.93;3.97;;;20.70;69.20;;;;;;4994120;28;20042;-61
2022/05/12 01:33:41;;;;;;;6.85;4.10;;;20.70;69.00;;;;;;4993871;28;20030;-62
2022/05/12 01:36:06;;;;;;;7.22;4.20;;;20.70;68.60;;;;;;4993364;28;20181;-62
2022/05/12 01:38:32;;;;;;;6.03;3.95;;;20.70;68.70;;;;;;4992942;28;20131;-62
2022/05/12 01:40:58;;;;;;;6.55;4.00;;;20.60;68.50;;;;;;4992639;28;20027;-61
2022/05/12 01:43:23;;;;;;;4.97;4.00;;;20.50;68.80;;;;;;4993550;28;20033;-61
2022/05/12 01:45:49;;;;;;;6.88;4.03;;;20.60;68.20;;;;;;4991976;28;20128;-62
2022/05/12 01:48:17;;;;;;;7.65;3.80;;;20.70;68.00;;;;;;4996545;28;20138;-62
2022/05/12 01:50:45;;;;;;;6.10;3.80;;;20.80;67.70;;;;;;4996557;28;20035;-61
2022/05/12 01:53:11;;;;;;;6.47;3.50;;;20.90;67.30;;;;;;4996268;28;20038;-62
2022/05/12 01:55:38;;;;;;;5.18;3.50;;;20.80;67.20;;;;;;4996242;28;20030;-62
2022/05/12 01:58:05;;;;;;;7.38;3.65;;;20.80;67.40;;;;;;4995191;28;20034;-62
2022/05/12 02:00:31;;;;;;;5.25;3.65;;;20.70;67.60;;;;;;4994766;28;20502;-62
2022/05/12 02:03:00;;;;;;;4.07;3.67;;;20.70;67.60;;;;;;4992017;28;20121;-61
2022/05/12 02:05:28;;;;;;;4.75;3.70;;;20.60;68.00;;;;;;4993134;28;20490;-61
2022/05/12 02:07:54;;;;;;;5.85;3.58;;;20.50;68.40;;;;;;4993518;28;20046;-62
2022/05/12 02:10:26;;;;;;;5.20;4.25;;;20.40;68.90;;;;;;4993073;28;20054;-62
2022/05/12 02:12:52;;;;;;;6.72;4.00;;;20.40;68.50;;;;;;4992552;28;20089;-61
2022/05/12 02:15:18;;;;;;;7.35;5.00;;;20.20;70.30;;;;;;4992541;28;20035;-61
2022/05/12 02:17:44;;;;;;;10.18;4.80;;;19.90;73.70;;;;;;4993348;28;20031;-59
2022/05/12 02:20:12;;;;;;;6.47;5.03;;;19.80;75.40;;;;;;4993153;28;20041;-59
2022/05/12 02:22:37;;;;;;;11.10;5.88;;;19.60;77.10;;;;;;4991726;28;20490;-62
2022/05/12 02:25:04;;;;;;;10.18;5.80;;;19.50;78.30;;;;;;4991213;28;20053;-61
2022/05/12 02:27:30;;;;;;;9.00;5.82;;;19.40;79.60;;;;;;4993254;28;20027;-62
2022/05/12 02:29:55;;;;;;;11.48;6.18;;;19.30;80.80;;;;;;4991877;28;20490;-61
2022/05/12 02:32:22;;;;;;;9.38;6.03;;;19.30;81.50;;;;;;4991759;28;20109;-61
2022/05/12 02:34:47;;;;;;;10.27;6.60;;;19.10;82.60;;;;;;4992492;28;20042;-60
2022/05/12 02:37:13;;;;;;;10.88;6.40;;;19.00;83.50;;;;;;4992383;28;20037;-61
2022/05/12 02:39:40;;;;;;;12.07;5.85;;;18.90;83.90;;;;;;4992622;28;20046;-62
2022/05/12 02:42:08;;;;;;;10.98;6.85;;;18.70;84.80;;;;;;4991524;28;20038;-61
2022/05/12 02:44:35;;;;;;;13.30;6.20;;;18.60;85.40;;;;;;4992395;28;20557;-62
2022/05/12 02:47:01;;;;;;;13.68;5.85;;;18.60;85.60;;;;;;4992766;28;20077;-61
2022/05/12 02:49:26;;;;;;;11.57;6.20;;;18.60;85.70;;;;;;4990750;28;20459;-66
2022/05/12 02:51:52;;;;;;;15.00;6.85;;;18.40;86.90;;;;;;4992376;28;20034;-62
2022/05/12 02:54:19;;;;;;;9.75;6.30;;;18.30;87.20;;;;;;4990688;28;20038;-62
2022/05/12 02:56:45;;;;;;;9.85;6.22;;;18.30;87.60;;;;;;4992051;28;20041;-63
2022/05/12 02:59:11;;;;;;;11.43;6.47;;;18.30;88.20;;;;;;4990748;28;20610;-62
2022/05/12 03:01:37;;;;;;;9.90;6.43;;;18.40;87.20;;;;;;4991865;28;20129;-61
2022/05/12 03:04:03;;;;;;;9.73;5.88;;;18.20;87.80;;;;;;4991969;28;20039;-62
2022/05/12 03:06:30;;;;;;;11.68;6.88;;;18.30;88.10;;;;;;4992289;28;20026;-61
2022/05/12 03:08:56;;;;;;;12.27;5.95;;;18.10;89.00;;;;;;4992075;28;20080;-61
2022/05/12 03:11:22;;;;;;;11.10;6.03;;;18.20;89.10;;;;;;4992315;28;20086;-62
2022/05/12 03:13:49;;;;;;;9.85;5.32;;;18.20;88.90;;;;;;4990271;28;20080;-61
2022/05/12 03:16:16;;;;;;;9.60;6.15;;;18.10;89.40;;;;;;4975022;28;20074;-62
2022/05/12 03:18:46;;;;;;;9.25;5.68;;;18.10;89.70;;;;;;4990123;28;20398;-60
2022/05/12 03:21:13;;;;;;;12.85;6.80;;;18.20;89.50;;;;;;4990598;28;20180;-61
2022/05/12 03:23:40;;;;;;;10.52;5.93;;;18.30;89.70;;;;;;4991753;28;20026;-61
2022/05/12 03:26:06;;;;;;;9.80;5.35;;;18.30;89.50;;;;;;4991469;28;20125;-62
2022/05/12 03:28:33;;;;;;;10.93;5.60;;;18.40;89.90;;;;;;4990381;28;20037;-59
2022/05/12 03:30:59;;;;;;;10.10;6.13;;;18.50;89.30;;;;;;4991769;28;20040;-63
2022/05/12 03:33:25;;;;;;;11.80;6.53;;;18.30;89.70;;;;;;4989650;28;20045;-62
2022/05/12 03:35:51;;;;;;;12.63;6.20;;;18.10;90.50;;;;;;4991678;28;20498;-62
2022/05/12 03:38:17;;;;;;;11.45;5.68;;;18.00;90.70;;;;;;4991029;28;20019;-61
2022/05/12 03:40:43;;;;;;;8.98;5.40;;;18.00;90.90;;;;;;4991809;28;20038;-62
2022/05/12 03:43:09;;;;;;;10.60;5.78;;;18.20;90.60;;;;;;4990902;28;20038;-60
2022/05/12 03:45:36;;;;;;;8.30;5.18;;;18.10;90.70;;;;;;4973935;28;20066;-64
2022/05/12 03:48:02;;;;;;;7.82;4.65;;;18.10;90.50;;;;;;4991556;28;20030;-64
2022/05/12 03:50:29;;;;;;;11.70;5.45;;;18.30;90.30;;;;;;4991343;28;20341;-61
2022/05/12 03:52:55;;;;;;;7.50;4.45;;;18.30;90.10;;;;;;4990460;28;20027;-61
2022/05/12 03:55:24;;;;;;;9.25;4.40;;;18.30;89.70;;;;;;4978175;28;20039;-60
2022/05/12 03:57:53;;;;;;;8.55;4.55;;;18.20;90.00;;;;;;4973230;28;20097;-61
2022/05/12 04:00:23;;;;;;;6.95;4.32;;;18.30;89.90;;;;;;4991547;28;20037;-61
2022/05/12 04:02:49;;;;;;;7.78;3.90;;;18.40;89.30;;;;;;4990714;28;20030;-61
2022/05/12 04:05:15;;;;;;;8.20;3.75;;;18.30;88.60;;;;;;4991334;28;20401;-63
2022/05/12 04:07:43;;;;;;;8.48;3.95;;;18.40;87.80;;;;;;4991452;28;20084;-60
2022/05/12 04:10:12;;;;;;;7.60;3.95;;;18.30;87.80;;;;;;4990764;28;20038;-62
2022/05/12 04:12:38;;;;;;;5.75;3.75;;;18.30;86.90;;;;;;4991536;28;20138;-62
2022/05/12 04:15:04;;;;;;;6.60;3.70;;;18.30;86.70;;;;;;4991038;28;20133;-60
2022/05/12 04:17:30;;;;;;;7.68;3.67;;;18.20;87.10;;;;;;4990063;28;20134;-61
2022/05/12 04:19:55;;;;;;;6.05;3.75;;;18.20;87.50;;;;;;4990030;28;20070;-61
2022/05/12 04:22:21;;;;;;;5.05;3.30;;;18.10;86.60;;;;;;4989770;28;20391;-62
2022/05/12 04:24:46;;;;;;;7.90;3.70;;;18.20;85.60;;;;;;4970143;28;20042;-62
2022/05/12 04:27:12;;;;;;;5.85;2.97;;;18.30;85.00;;;;;;4972116;28;20031;-62
2022/05/12 04:29:42;;;;;;;5.43;3.15;;;18.30;84.00;;;;;;4985577;28;20044;-63
2022/05/12 04:32:09;;;;;;;6.25;3.13;;;18.20;84.30;;;;;;4991176;28;20033;-62
2022/05/12 04:37:25;;;;;;;4.35;2.85;;;18.20;83.70;;;;;;4992271;28;20026;-63
2022/05/12 04:39:50;;;;;;;5.88;2.80;;;18.20;82.90;;;;;;4977349;28;20049;-62
2022/05/12 04:42:16;;;;;;;6.13;2.63;;;18.10;83.10;;;;;;4994575;28;20042;-61
2022/05/12 04:44:41;;;;;;;5.88;2.70;;;18.20;82.90;;;;;;4994878;28;20026;-60
2022/05/12 04:47:07;;;;;;;5.95;3.20;;;18.10;83.20;;;;;;4993298;28;20044;-62
2022/05/12 04:49:33;;;;;;;8.77;3.40;;;17.90;83.90;;;;;;4993453;28;20026;-63
2022/05/12 04:52:01;;;;;;;5.70;2.72;;;17.80;84.50;;;;;;4994396;28;20053;-62
2022/05/12 04:54:28;;;;;;;5.60;2.63;;;17.90;84.50;;;;;;4972738;28;20104;-61
2022/05/12 04:56:53;;;;;;;4.80;2.95;;;17.80;84.80;;;;;;4975198;28;20498;-64
2022/05/12 04:59:19;;;;;;;7.18;2.97;;;17.90;84.70;;;;;;4993448;28;20050;-62
2022/05/12 05:01:44;;;;;;;3.35;2.60;;;17.60;86.00;;;;;;4994161;28;20030;-62
2022/05/12 05:04:10;;;;;;;3.30;2.58;;;17.60;86.00;;;;;;4993664;28;20026;-61
2022/05/12 05:06:36;;;;;;;6.82;3.08;;;17.70;85.10;;;;;;4965073;28;20042;-59
2022/05/12 05:09:02;;;;;;;6.13;2.70;;;17.60;86.10;;;;;;4957416;28;20117;-61
2022/05/12 05:11:28;;;;;;;5.03;2.55;;;17.40;84.20;;;;;;4985565;28;20125;-62
2022/05/12 05:13:53;;;;;;;5.38;2.90;;;17.30;83.70;;;;;;5003873;28;20042;-63
2022/05/12 05:16:20;;;;;;;3.17;2.40;;;17.30;83.80;;;;;;5003277;28;20035;-65
2022/05/12 05:18:46;;;;;;;6.30;3.28;;;17.40;83.20;;;;;;5004061;28;20042;-65
2022/05/12 05:21:12;;;;;;;5.25;2.55;;;17.50;82.60;;;;;;4978606;28;20050;-62
2022/05/12 05:23:38;;;;;;;5.60;2.63;;;17.50;81.80;;;;;;4992351;28;20030;-62
2022/05/12 05:26:04;;;;;;;4.60;2.22;;;17.40;81.60;;;;;;4992544;28;20022;-63
2022/05/12 05:28:31;;;;;;;4.13;2.30;;;17.30;81.80;;;;;;4994156;28;20030;-63
2022/05/12 05:30:56;;;;;;;5.03;2.67;;;17.40;81.80;;;;;;4995715;28;20030;-62
2022/05/12 05:33:22;;;;;;;7.03;2.60;;;17.40;81.50;;;;;;4993825;28;20556;-63
2022/05/12 05:35:48;;;;;;;5.60;2.30;;;17.50;81.70;;;;;;4994012;28;20039;-62
2022/05/12 05:38:14;;;;;;;8.40;2.40;;;17.70;81.30;;;;;;4993398;28;20032;-62
2022/05/12 05:40:40;;;;;;;5.07;2.35;;;17.70;81.10;;;;;;4992794;28;20038;-63
2022/05/12 05:43:05;;;;;;;5.65;2.40;;;17.70;80.30;;;;;;4991935;28;20034;-62
2022/05/12 05:45:31;;;;;;;6.70;2.20;;;17.70;80.40;;;;;;4977924;28;20125;-62
2022/05/12 05:48:00;;;;;;;5.30;2.10;;;17.50;80.50;;;;;;4993421;28;20023;-62
2022/05/12 05:53:27;;;;;;;8.45;2.38;;;17.50;79.40;;;;;;4993369;28;20022;-62
2022/05/12 05:55:55;;;;;;;5.50;2.40;;;17.60;78.60;;;;;;4976022;28;20031;-63
2022/05/12 05:58:22;;;;;;;3.95;2.10;;;17.70;78.10;;;;;;4978356;28;20027;-61
2022/05/12 06:00:48;;;;;;;6.57;2.60;;;17.70;78.90;;;;;;4993524;28;20037;-64
2022/05/12 06:03:15;;;;;;;5.50;2.70;;;17.50;81.10;;;;;;4992635;28;20034;-63
2022/05/12 06:05:41;;;;;;;10.00;3.05;;;17.20;83.00;;;;;;4993016;28;20054;-61
2022/05/12 06:08:14;;;;;;;6.30;2.95;;;17.10;82.80;;;;;;4992476;28;20026;-62
2022/05/12 06:10:40;;;;;;;9.88;2.80;;;16.90;83.10;;;;;;4992678;28;20025;-61
2022/05/12 06:13:06;;;;;;;8.30;3.35;;;16.50;82.30;;;;;;4990574;28;20070;-62
2022/05/12 06:15:34;;;;;;;4.13;2.20;;;16.30;81.60;;;;;;4991232;28;20038;-62
2022/05/12 06:17:59;;;;;;;7.10;2.33;;;16.20;81.00;;;;;;4991805;28;20040;-61
2022/05/12 06:20:25;;;;;;;5.60;2.28;;;16.20;81.60;;;;;;4992040;28;20506;-63
2022/05/12 06:22:51;;;;;;;5.03;2.10;;;16.00;81.30;;;;;;4991611;28;20615;-63
2022/05/12 06:25:17;;;;;;;6.32;2.25;;;16.10;81.70;;;;;;4992987;28;20034;-64
2022/05/12 06:27:46;;;;;;;4.93;2.20;;;16.30;80.80;;;;;;4991597;28;20030;-62
2022/05/12 06:30:13;;;;;;;4.07;2.55;;;16.30;80.20;;;;;;4992942;28;20038;-64
2022/05/12 06:32:40;;;;;;;5.80;2.40;;;16.20;80.90;;;;;;4973092;28;20084;-62
2022/05/12 06:35:08;;;;;;;5.70;2.25;;;16.30;80.10;;;;;;4992555;28;20542;-63
2022/05/12 06:37:34;;;;;;;5.03;2.00;;;16.40;78.70;;;;;;4991007;28;20166;-63
2022/05/12 06:40:00;;;;;;;8.15;2.58;;;16.40;77.30;;;;;;4992192;28;20330;-63
2022/05/12 06:42:26;;;;;;;13.05;2.63;;;16.30;77.40;;;;;;4992356;28;20242;-63
2022/05/12 06:44:51;;;;;;;6.03;1.77;;;16.20;77.40;;;;;;4992169;28;20030;-64
2022/05/12 06:47:17;;;;;;;5.35;2.42;;;16.10;77.80;;;;;;4992282;28;20037;-62
2022/05/12 06:49:48;;;;;;;6.97;2.30;;;16.20;77.70;;;;;;4991475;28;20372;-63
2022/05/12 06:52:14;;;;;;;5.43;1.90;;;16.40;77.00;;;;;;4991049;28;20038;-63
2022/05/12 06:54:44;;;;;;;3.15;1.90;;;16.60;77.00;;;;;;4971464;28;20046;-62
2022/05/12 06:57:10;;;;;;;6.05;2.25;;;16.60;76.50;;;;;;4991210;28;20030;-63
2022/05/12 06:59:40;;;;;;;4.85;2.10;;;16.60;76.00;;;;;;4991525;28;20038;-62
2022/05/12 07:02:09;;;;;;;3.75;2.08;;;16.40;76.70;;;;;;4990469;28;20549;-63
2022/05/12 07:04:34;;;;;;;3.42;1.77;;;16.30;76.60;;;;;;4974755;28;20030;-62
2022/05/12 07:07:00;;;;;;;3.88;1.85;;;16.40;76.10;;;;;;4992014;28;20029;-63
2022/05/12 07:09:26;;;;;;;5.75;2.28;;;16.60;76.40;;;;;;4992090;28;20314;-64
2022/05/12 07:11:52;;;;;;;1.90;1.70;;;16.80;76.20;;;;;;4991519;28;20030;-64
2022/05/12 07:14:17;;;;;;;3.55;1.55;;;16.90;75.00;;;;;;4990533;28;20034;-63
2022/05/12 07:16:46;;;;;;;3.67;2.42;;;16.70;74.80;;;;;;4991806;28;20046;-64
2022/05/12 07:19:15;;;;;;;2.92;1.80;;;16.60;75.70;;;;;;4991826;28;20045;-62
2022/05/12 07:27:17;;;;;;;6.05;2.28;;;16.70;74.40;;;;;;4992272;28;20030;-62
2022/05/12 07:29:43;;;;;;;1.98;1.67;;;16.70;74.50;;;;;;4990487;28;20491;-62
2022/05/12 07:32:08;;;;;;;2.78;2.00;;;16.70;74.60;;;;;;4991043;28;20042;-61
2022/05/12 07:34:34;;;;;;;8.23;1.98;;;16.70;74.50;;;;;;4991394;28;20461;-61
2022/05/12 07:37:00;;;;;;;1.63;1.52;;;16.60;75.10;;;;;;4991263;28;20081;-63
2022/05/12 07:39:29;;;;;;;11.88;1.88;;;16.60;74.60;;;;;;4990687;28;20070;-61
2022/05/12 07:42:00;;;;;;;3.40;1.75;;;16.60;75.40;;;;;;4990637;28;20506;-62
2022/05/12 07:44:32;;;;;;;2.85;1.58;;;16.70;74.90;;;;;;4991631;28;20058;-62
2022/05/12 07:47:00;;;;;;;2.95;2.10;;;17.00;75.00;;;;;;4991606;28;20030;-60
2022/05/12 07:49:31;;;;;;;2.47;1.55;;;17.10;74.00;;;;;;4988354;28;20134;-62
2022/05/12 07:51:59;;;;;;;3.80;1.80;;;17.00;74.50;;;;;;4991058;28;20128;-62
2022/05/12 07:54:24;;;;;;;9.07;1.80;;;17.20;73.70;;;;;;4976753;28;20061;-63
2022/05/12 07:56:50;;;;;;;4.65;1.73;;;17.40;74.00;;;;;;4991441;28;20502;-61
2022/05/12 07:59:15;;;;;;;3.00;1.75;;;17.50;73.30;;;;;;4990647;28;20034;-61
2022/05/12 08:01:41;;;;;;;2.72;1.80;;;17.50;72.70;;;;;;4991419;28;20121;-61
2022/05/12 08:04:07;;;;;;;4.03;1.52;;;17.40;72.60;;;;;;4990808;28;20034;-61
2022/05/12 08:06:33;;;;;;;3.38;1.77;;;17.20;73.30;;;;;;4991906;28;20118;-63
2022/05/12 08:08:59;;;;;;;3.53;1.40;;;17.40;73.30;;;;;;4990614;28;20462;-61
2022/05/12 08:11:25;;;;;;;4.45;2.00;;;17.40;72.60;;;;;;4993017;28;20034;-62
2022/05/12 08:13:50;;;;;;;3.13;1.58;;;17.50;72.70;;;;;;4993441;28;20098;-61
2022/05/12 08:16:18;;;;;;;1.98;1.70;;;17.50;72.60;;;;;;4995048;28;20092;-62
2022/05/12 08:18:45;;;;;;;3.08;1.95;;;17.60;72.10;;;;;;4994705;28;20027;-61
2022/05/12 08:21:13;;;;;;;6.35;2.30;;;17.50;72.00;;;;;;4995634;28;20037;-63
2022/05/12 08:23:39;;;;;;;4.13;1.88;;;17.50;72.50;;;;;;4994749;28;20030;-61
2022/05/12 08:26:05;;;;;;;13.85;2.92;;;17.50;72.30;;;;;;4995070;28;20029;-61
2022/05/12 08:28:30;;;;;;;4.57;2.10;;;17.70;72.20;;;;;;4994507;28;20034;-62
2022/05/12 08:30:56;;;;;;;1.88;1.58;;;17.70;71.90;;;;;;4993914;28;20033;-62
2022/05/12 08:33:22;;;;;;;3.15;1.92;;;17.60;71.90;;;;;;4987340;28;20480;-62
2022/05/12 08:35:49;;;;;;;2.15;1.88;;;17.50;72.60;;;;;;4994275;28;20034;-64
2022/05/12 08:38:17;;;;;;;4.57;2.22;;;17.60;72.20;;;;;;4994649;28;20034;-62
2022/05/12 08:41:27;;;;;;;5.47;2.58;;;17.60;72.50;;;;;;4993347;28;20129;-62
2022/05/12 08:44:08;;;;;;;3.47;1.60;;;17.80;71.90;;;;;;4986312;28;20057;-62
2022/05/12 08:46:54;;;;;;;2.63;1.83;;;17.80;71.30;;;;;;4993673;28;20097;-62
2022/05/12 08:49:52;;;;;;;6.80;2.60;;;17.70;70.90;;;;;;4994676;28;20038;-63
2022/05/12 08:52:46;;;;;;;9.45;2.70;;;17.50;70.40;;;;;;4961115;28;20067;-62
2022/05/12 08:55:20;;;;;;;3.00;1.75;;;17.70;70.40;;;;;;4986132;28;20026;-62
2022/05/12 08:57:52;;;;;;;4.05;1.92;;;18.10;69.60;;;;;;4994575;28;20034;-62
2022/05/12 09:00:18;;;;;;;4.15;2.17;;;18.10;69.80;;;;;;4993443;28;20022;-62
2022/05/12 09:02:57;;;;;;;3.22;2.33;;;18.10;69.40;;;;;;4994162;28;20057;-61
2022/05/12 09:05:27;;;;;;;3.63;1.65;;;18.40;69.00;;;;;;4994660;28;20038;-62
2022/05/12 09:08:17;;;;;;;3.40;1.80;;;18.30;69.20;;;;;;4992539;28;20154;-63
2022/05/12 09:10:51;;;;;;;4.55;1.90;;;18.20;69.40;;;;;;4994987;28;20040;-62
2022/05/12 09:13:35;;;;;;;6.63;2.33;;;18.20;69.30;;;;;;4994067;28;20479;-62
2022/05/12 09:16:40;;;;;;;3.30;2.38;;;18.50;69.30;;;;;;4995034;28;20042;-62
2022/05/12 09:19:05;;;;;;;3.47;1.80;;;18.60;68.20;;;;;;4971470;28;20038;-62
2022/05/12 09:21:35;;;;;;;5.55;2.05;;;18.40;68.40;;;;;;4977056;28;20398;-62
2022/05/12 09:24:07;;;;;;;5.03;2.67;;;18.20;69.20;;;;;;4992424;28;20046;-62
2022/05/12 09:26:46;;;;;;;4.40;2.00;;;18.10;69.80;;;;;;4993927;28;20038;-62
2022/05/12 09:29:25;;;;;;;4.75;1.80;;;18.40;69.30;;;;;;4993728;28;20044;-61
2022/05/12 09:31:57;;;;;;;5.07;2.00;;;18.60;68.70;;;;;;4974812;28;20045;-61
2022/05/12 09:34:36;;;;;;;3.90;2.10;;;18.60;69.20;;;;;;4974230;28;20034;-61
2022/05/12 09:37:17;;;;;;;5.55;2.03;;;19.00;68.50;;;;;;4986899;28;20053;-62
2022/05/12 09:39:47;;;;;;;4.25;2.20;;;19.20;68.70;;;;;;4993668;28;20034;-62
2022/05/12 09:42:27;;;;;;;3.65;2.13;;;19.40;67.70;;;;;;4993750;28;20034;-59
2022/05/12 09:45:17;;;;;;;3.60;1.95;;;19.50;67.20;;;;;;4993733;28;20026;-61
2022/05/12 09:47:42;;;;;;;3.90;2.00;;;19.80;66.40;;;;;;4993711;28;20034;-61
2022/05/12 09:50:17;;;;;;;2.92;1.95;;;19.60;67.80;;;;;;4993775;28;20037;-61
2022/05/12 09:53:05;;;;;;;5.55;2.22;;;19.70;66.80;;;;;;4993751;28;20042;-62
2022/05/12 09:55:33;;;;;;;3.80;2.10;;;19.70;67.80;;;;;;4999138;28;20410;-62
2022/05/12 09:58:02;;;;;;;4.38;2.22;;;19.80;67.10;;;;;;4973044;28;20506;-61
2022/05/12 10:00:40;;;;;;;2.75;1.88;;;19.80;67.60;;;;;;4992880;28;20034;-62
2022/05/12 10:09:18;;;;;;;5.35;2.25;;;19.90;67.20;;;;;;4992794;28;20113;-61
2022/05/12 10:12:07;;;;;;;2.50;1.95;;;19.80;67.20;;;;;;4990169;28;20057;-59
2022/05/12 10:15:16;;;;;;;3.67;2.17;;;19.50;67.70;;;;;;4986005;28;20080;-60
2022/05/12 10:17:44;;;;;;;2.50;1.90;;;19.60;67.50;;;;;;4948626;29;20031;-60
2022/05/12 10:20:18;;;;;;;4.75;2.00;;;19.70;67.40;;;;;;4969217;28;20047;-62
2022/05/12 10:22:51;;;;;;;4.70;2.15;;;19.80;67.70;;;;;;4991952;28;20037;-61
2022/05/12 10:26:02;;;;;;;5.45;2.00;;;20.00;66.80;;;;;;4992948;28;20525;-61
2022/05/12 10:29:04;;;;;;;2.78;1.90;;;20.30;66.10;;;;;;4993040;28;20022;-60
2022/05/12 10:31:50;;;;;;;5.60;2.10;;;20.30;66.20;;;;;;4991946;28;20434;-58
2022/05/12 10:34:53;;;;;;;3.40;2.05;;;20.00;67.10;;;;;;4991952;28;20108;-60
2022/05/12 10:37:43;;;;;;;6.90;2.30;;;20.10;66.00;;;;;;4992537;28;20642;-61
2022/05/12 10:40:46;;;;;;;6.43;2.03;;;19.90;67.40;;;;;;4990999;28;20074;-59
2022/05/12 10:43:46;;;;;;;3.15;1.77;;;20.20;66.20;;;;;;4992021;28;20030;-61
2022/05/12 10:46:21;;;;;;;4.40;2.00;;;20.30;65.70;;;;;;4993047;28;20029;-61
2022/05/12 10:49:11;;;;;;;6.32;2.00;;;20.20;65.50;;;;;;4992951;28;20037;-62
2022/05/12 10:51:55;;;;;;;4.38;2.20;;;20.40;64.40;;;;;;4991473;28;20030;-61
2022/05/12 10:54:34;;;;;;;5.90;2.30;;;20.50;63.80;;;;;;4989085;28;20038;-61
2022/05/12 10:56:59;;;;;;;4.78;2.20;;;20.80;63.80;;;;;;4974338;28;20050;-63
2022/05/12 10:59:58;;;;;;;6.85;2.35;;;21.10;62.10;;;;;;4982856;28;20426;-61
2022/05/12 11:02:48;;;;;;;5.75;2.33;;;21.20;62.60;;;;;;4992134;28;20034;-61
2022/05/12 11:05:22;;;;;;;13.18;2.30;;;21.10;61.70;;;;;;4992259;28;20038;-61
2022/05/12 11:07:49;;;;;;;;;;;21.20;62.90;;;;;;4992082;28;20033;-62
2022/05/12 11:10:39;;;;;;;6.57;2.35;;;21.10;61.00;;;;;;4991881;28;19921;-61
2022/05/12 11:13:12;;;;;;;3.25;2.28;;;20.80;61.90;;;;;;4992307;28;20031;-61
2022/05/12 11:16:02;;;;;;;5.07;2.15;;;20.60;62.00;;;;;;4991746;28;20040;-61
2022/05/12 11:18:53;;;;;;;5.93;2.35;;;20.40;63.10;;;;;;4991515;28;20042;-61
2022/05/12 11:21:25;;;;;;;4.38;2.33;;;20.40;62.10;;;;;;4983677;28;20046;-62
2022/05/12 11:24:18;;;;;;;5.90;2.20;;;20.40;62.30;;;;;;4991151;28;20030;-61
2022/05/12 11:26:52;;;;;;;3.97;1.90;;;20.60;63.50;;;;;;4991815;28;20030;-60
2022/05/12 11:29:51;;;;;;;4.60;2.33;;;21.10;63.10;;;;;;4990550;28;20113;-61
2022/05/12 11:32:51;;;;;;;4.30;1.95;;;21.10;60.30;;;;;;4986971;28;20039;-61
2022/05/12 11:35:40;;;;;;;6.32;2.25;;;20.90;60.70;;;;;;4984662;28;20117;-60
2022/05/12 11:38:12;;;;;;;6.63;2.28;;;21.00;61.40;;;;;;4990855;28;20034;-61
2022/05/12 11:40:44;;;;;;;4.68;2.25;;;20.80;61.50;;;;;;4992072;28;20031;-61
2022/05/12 11:46:23;;;;;;;3.45;2.00;;;21.10;61.30;;;;;;4993900;28;20130;-60
2022/05/12 11:48:48;;;;;;;4.57;1.90;;;20.60;60.80;;;;;;4997982;28;20065;-60
2022/05/12 11:51:35;;;;;;;5.88;1.98;;;20.70;61.20;;;;;;4997555;28;20322;-60
2022/05/12 11:54:07;;;;;;;4.53;2.28;;;20.80;59.80;;;;;;4997875;28;20162;-61
2022/05/12 11:56:49;;;;;;;5.22;2.95;;;20.90;60.10;;;;;;4997627;28;20122;-62
2022/05/12 11:59:18;;;;;;;7.53;2.40;;;21.10;60.50;;;;;;4999721;28;20057;-61
2022/05/12 12:01:44;;;;;;;6.82;2.70;;;21.00;59.10;;;;;;5002920;28;20061;-61
2022/05/12 12:04:14;;;;;;;3.13;1.73;;;20.80;60.40;;;;;;5001842;28;20038;-60
2022/05/12 12:06:48;;;;;;;9.15;2.15;;;20.90;60.90;;;;;;4998612;28;20030;-61
2022/05/12 12:09:33;;;;;;;7.22;2.22;;;20.80;58.70;;;;;;4998002;28;20042;-61
2022/05/12 12:11:59;;;;;;;4.32;1.65;;;20.80;59.60;;;;;;4998266;28;20049;-60
2022/05/12 12:14:42;;;;;;;7.15;2.10;;;21.20;57.30;;;;;;4997069;28;20030;-60
2022/05/12 12:17:32;;;;;;;14.13;2.50;;;21.40;56.20;;;;;;4998125;28;20046;-59
2022/05/12 12:20:05;;;;;;;9.32;3.08;;;20.90;57.10;;;;;;4996435;28;20277;-58
2022/05/12 12:22:39;;;;;;;5.10;1.93;;;21.20;56.60;;;;;;4997781;28;20030;-60
2022/05/12 12:25:39;;;;;;;4.00;2.38;;;21.40;57.80;;;;;;4997367;28;20454;-62
2022/05/12 12:28:09;;;;;;;6.80;2.45;;;21.30;58.30;;;;;;4997825;28;20133;-61
2022/05/12 12:30:55;;;;;;;19.27;3.22;;;21.20;59.00;;;;;;4995994;28;20093;-61
2022/05/12 12:33:24;;;;;;;3.10;1.85;;;21.30;58.30;;;;;;4995806;28;20045;-60
2022/05/12 12:36:25;;;;;;;9.40;2.55;;;21.50;56.10;;;;;;4997157;28;20037;-59
2022/05/12 12:38:53;;;;;;;3.58;2.05;;;21.30;56.20;;;;;;4941855;28;20042;-61
2022/05/12 12:41:33;;;;;;;3.75;2.10;;;21.60;56.30;;;;;;4970439;28;20054;-59
2022/05/12 12:44:00;;;;;;;10.38;2.38;;;21.90;55.00;;;;;;4997103;28;20031;-59
2022/05/12 12:46:43;;;;;;;4.55;2.28;;;21.70;55.80;;;;;;4997850;28;20034;-60
2022/05/12 12:49:11;;;;;;;3.03;2.17;;;21.60;55.50;;;;;;4997079;28;20084;-60
2022/05/12 12:51:39;;;;;;;2.78;1.92;;;21.90;55.50;;;;;;4996482;28;20043;-60
2022/05/12 12:57:24;;;;;;;12.30;2.58;;;21.70;54.10;;;;;;5001101;28;20094;-61
2022/05/12 12:59:58;;;;;;;2.88;2.17;;;21.50;56.20;;;;;;4974693;28;20035;-61
2022/05/12 13:02:25;;;;;;;;;;;21.80;55.20;;;;;;4976164;28;20043;-61
2022/05/12 13:04:56;;;;;;;4.10;2.25;;;22.00;55.60;;;;;;4993967;28;19995;-61
2022/05/12 13:07:29;;;;;;;4.03;2.17;;;22.00;52.00;;;;;;4993736;28;20037;-62
2022/05/12 13:09:55;;;;;;;6.03;2.08;;;21.90;53.00;;;;;;4992874;28;20034;-62
2022/05/12 13:12:26;;;;;;;4.22;2.00;;;22.20;53.20;;;;;;4993538;28;20106;-61
2022/05/12 13:14:54;;;;;;;5.60;1.85;;;22.30;52.50;;;;;;4991859;28;20038;-63
2022/05/12 13:17:37;;;;;;;7.13;2.28;;;22.10;52.80;;;;;;4992761;28;20030;-62
2022/05/12 13:20:14;;;;;;;4.30;2.13;;;21.90;52.60;;;;;;4993363;28;20041;-61
2022/05/12 13:22:49;;;;;;;3.88;2.20;;;22.00;52.20;;;;;;4993468;28;20279;-61
2022/05/12 13:25:20;;;;;;;3.22;2.20;;;22.00;50.90;;;;;;4993080;28;20407;-61
2022/05/12 13:27:47;;;;;;;3.33;2.22;;;21.90;50.50;;;;;;4974258;28;20034;-61
2022/05/12 13:30:19;;;;;;;11.70;2.45;;;22.00;50.50;;;;;;4989151;28;20042;-61
2022/05/12 13:32:44;;;;;;;4.50;2.10;;;22.00;51.50;;;;;;4991611;28;20042;-61
2022/05/12 13:35:26;;;;;;;4.07;1.88;;;22.00;52.10;;;;;;4993138;28;20033;-60
2022/05/12 13:38:04;;;;;;;2.25;2.00;;;22.30;50.40;;;;;;4993437;28;20064;-61
2022/05/12 13:40:43;;;;;;;3.67;1.70;;;22.00;51.60;;;;;;4992193;28;20042;-60
2022/05/12 13:43:22;;;;;;;6.78;2.42;;;21.90;51.20;;;;;;4992565;28;20041;-60